createdAt,value
2019-03-23T00:02:22.397Z,76.20
2019-03-23T00:07:29.986Z,68.57
2019-03-23T00:13:09.972Z,74.37
2019-03-23T00:18:14.657Z,75.77
2019-03-23T00:23:19.138Z,80.07
2019-03-23T00:28:59.532Z,79.03
2019-03-23T00:34:05.049Z,76.10
2019-03-23T00:39:45.273Z,75.60
2019-03-23T00:44:49.866Z,78.63
2019-03-23T00:50:30.500Z,81.27
2019-03-23T00:55:39.232Z,72.63
2019-03-23T01:01:19.669Z,76.27
2019-03-23T01:06:24.292Z,77.30
2019-03-23T01:12:04.536Z,65.93
2019-03-23T01:17:09.081Z,76.53
2019-03-23T01:22:49.759Z,77.70
2019-03-23T01:27:56.396Z,68.17
2019-03-23T01:33:36.420Z,66.00
2019-03-23T01:38:42.649Z,73.20
2019-03-23T01:44:22.567Z,75.53
2019-03-23T01:49:27.320Z,70.73
2019-03-23T01:54:31.665Z,70.87
2019-03-23T01:59:43.615Z,71.20
2019-03-23T02:05:23.841Z,73.47
2019-03-23T02:10:28.477Z,70.77
2019-03-23T02:16:11.050Z,70.23
2019-03-23T02:21:18.572Z,71.37
2019-03-23T02:26:59.001Z,66.03
2019-03-23T02:32:03.461Z,71.90
2019-03-23T02:37:43.923Z,61.07
2019-03-23T02:42:50.428Z,66.07
2019-03-23T02:48:16.348Z,65.73
2019-03-23T02:53:22.990Z,66.40
2019-03-23T02:59:05.060Z,72.70
2019-03-23T03:04:09.545Z,75.33
2019-03-23T03:09:49.979Z,73.53
2019-03-23T03:14:54.333Z,76.63
2019-03-23T03:20:34.696Z,70.03
2019-03-23T03:25:43.463Z,60.97
2019-03-23T03:31:24.534Z,65.07
2019-03-23T03:36:30.237Z,61.20
2019-03-23T03:42:19.969Z,60.23
2019-03-23T03:48:00.279Z,57.87
2019-03-23T03:53:10.403Z,60.47
2019-03-23T03:58:50.932Z,71.70
2019-03-23T04:03:55.874Z,66.50
2019-03-23T04:09:36.049Z,65.90
2019-03-23T04:14:40.624Z,61.67
2019-03-23T04:20:20.534Z,67.27
2019-03-23T04:25:25.049Z,67.27
2019-03-23T04:31:04.858Z,67.77
2019-03-23T04:36:19.681Z,66.00
2019-03-23T04:42:00.114Z,69.37
2019-03-23T04:47:05.222Z,66.97
2019-03-23T04:52:45.550Z,68.77
2019-03-23T04:57:52.428Z,70.30
2019-03-23T05:03:32.823Z,79.87
2019-03-23T05:08:37.420Z,87.23
2019-03-23T05:14:17.332Z,85.67
2019-03-23T05:19:24.091Z,94.37
2019-03-23T05:25:04.606Z,91.93
2019-03-23T05:30:09.322Z,95.70
2019-03-23T05:35:49.423Z,107.57
2019-03-23T05:40:54.060Z,95.40
2019-03-23T05:46:36.305Z,103.77
2019-03-23T05:51:41.573Z,103.63
2019-03-23T05:56:47.605Z,98.90
2019-03-23T06:02:35.061Z,103.90
2019-03-23T06:07:39.619Z,94.93
2019-03-23T06:19:43.103Z,89.07
2019-03-23T06:31:00.358Z,76.73
2019-03-23T06:36:19.779Z,81.73
2019-03-23T06:48:29.277Z,87.57
2019-03-23T06:53:33.571Z,81.37
2019-03-23T06:58:38.866Z,73.73
2019-03-23T07:03:43.135Z,75.87
2019-03-23T07:08:47.299Z,75.07
2019-03-23T07:13:52.016Z,73.80
2019-03-23T07:18:56.650Z,79.50
2019-03-23T07:24:03.620Z,86.83
2019-03-23T07:29:09.042Z,72.97
2019-03-23T07:34:18.497Z,78.90
2019-03-23T07:39:28.009Z,81.87
2019-03-23T07:44:31.448Z,89.37
2019-03-23T07:49:35.738Z,80.63
2019-03-23T07:54:39.850Z,71.80
2019-03-23T07:59:47.884Z,77.33
2019-03-23T08:04:53.529Z,70.20
2019-03-23T08:10:00.648Z,72.93
2019-03-23T08:15:10.208Z,69.63
2019-03-23T08:20:21.165Z,82.77
2019-03-23T08:25:25.915Z,88.93
2019-03-23T08:30:32.191Z,79.10
2019-03-23T08:35:39.960Z,88.63
2019-03-23T08:40:51.679Z,84.60
2019-03-23T08:45:56.182Z,88.43
2019-03-23T08:51:04.824Z,80.87
2019-03-23T08:56:10.570Z,82.27
2019-03-23T09:01:15.537Z,74.90
2019-03-23T09:06:55.808Z,78.70
2019-03-23T09:12:02.521Z,78.90
2019-03-23T09:17:43.095Z,80.03
2019-03-23T09:22:58.502Z,66.63
2019-03-23T09:28:38.963Z,76.13
2019-03-23T09:33:44.399Z,78.47
2019-03-23T09:39:25.833Z,80.07
2019-03-23T09:44:30.107Z,82.53
2019-03-23T09:50:10.236Z,80.77
2019-03-23T09:55:14.926Z,82.33
2019-03-23T10:00:19.404Z,82.60
2019-03-23T10:05:23.972Z,78.97
2019-03-23T10:11:04.540Z,83.00
2019-03-23T10:16:11.831Z,86.87
2019-03-23T10:21:52.096Z,98.17
2019-03-23T10:26:57.278Z,82.17
2019-03-23T10:32:37.862Z,92.57
2019-03-23T10:37:42.820Z,82.97
2019-03-23T10:43:22.659Z,95.40
2019-03-23T10:48:27.401Z,89.23
2019-03-23T10:54:06.984Z,87.67
2019-03-23T10:59:12.274Z,89.63
2019-03-23T11:04:52.734Z,80.53
2019-03-23T11:09:57.407Z,81.60
2019-03-23T11:15:37.291Z,86.77
2019-03-23T11:20:42.895Z,76.03
2019-03-23T11:26:22.567Z,84.50
2019-03-23T11:31:27.068Z,92.73
2019-03-23T11:37:07.522Z,78.93
2019-03-23T11:42:12.026Z,75.30
2019-03-23T11:47:52.169Z,78.33
2019-03-23T11:53:04.215Z,88.77
2019-03-23T11:58:44.699Z,80.23
2019-03-23T12:03:48.665Z,74.97
2019-03-23T12:09:28.997Z,71.97
2019-03-23T12:14:36.637Z,71.17
2019-03-23T12:20:16.532Z,84.70
2019-03-23T12:25:23.215Z,82.33
2019-03-23T12:31:04.470Z,75.70
2019-03-23T12:36:09.079Z,65.47
2019-03-23T12:41:48.723Z,65.23
2019-03-23T12:46:52.796Z,69.10
2019-03-23T12:52:33.523Z,74.80
2019-03-23T12:57:45.025Z,64.60
2019-03-23T13:02:49.627Z,67.10
2019-03-23T13:07:55.944Z,63.27
2019-03-23T13:13:00.550Z,56.77
2019-03-23T13:18:05.299Z,67.67
2019-03-23T13:23:45.102Z,57.90
2019-03-23T13:28:49.245Z,51.00
2019-03-23T13:34:28.876Z,51.90
2019-03-23T13:39:35.800Z,50.47
2019-03-23T13:45:15.997Z,37.77
2019-03-23T13:50:29.073Z,39.43
2019-03-23T13:55:33.805Z,41.33
2019-03-23T14:00:38.381Z,40.37
2019-03-23T14:06:18.315Z,31.93
2019-03-23T14:11:25.112Z,31.47
2019-03-23T14:17:05.593Z,28.60
2019-03-23T14:22:13.612Z,30.13
2019-03-23T14:27:54.606Z,23.90
2019-03-23T14:32:58.939Z,15.57
2019-03-23T14:38:41.164Z,11.43
2019-03-23T14:43:45.187Z,7.53
2019-03-23T14:49:25.087Z,8.17
2019-03-23T14:54:30.261Z,9.63
2019-03-23T15:00:10.808Z,8.00
2019-03-23T15:05:17.754Z,7.77
2019-03-23T15:10:57.523Z,6.20
2019-03-23T15:16:03.428Z,6.27
2019-03-23T15:21:43.911Z,5.60
2019-03-23T15:26:51.278Z,6.30
2019-03-23T15:32:31.229Z,6.50
2019-03-23T15:37:35.857Z,7.77
2019-03-23T15:43:16.126Z,8.17
2019-03-23T15:48:20.081Z,6.97
2019-03-23T15:54:00.984Z,8.90
2019-03-23T15:59:05.356Z,5.77
2019-03-23T16:04:10.380Z,5.80
2019-03-23T16:09:17.134Z,14.10
2019-03-23T16:14:21.840Z,7.47
2019-03-23T16:20:01.609Z,11.57
2019-03-23T16:25:06.796Z,8.20
2019-03-23T16:30:46.936Z,16.73
2019-03-23T16:35:51.056Z,8.90
2019-03-23T16:41:34.927Z,9.80
2019-03-23T16:46:39.510Z,12.40
2019-03-23T16:52:19.639Z,18.20
2019-03-23T16:57:24.236Z,7.93
2019-03-23T17:02:28.996Z,10.20
2019-03-23T17:07:33.556Z,10.33
2019-03-23T17:13:13.543Z,8.30
2019-03-23T17:18:18.403Z,9.63
2019-03-23T17:23:59.478Z,17.27
2019-03-23T17:29:05.680Z,13.73
2019-03-23T17:34:45.936Z,8.27
2019-03-23T17:39:52.972Z,12.87
2019-03-23T17:45:33.310Z,12.73
2019-03-23T17:50:38.162Z,11.17
2019-03-23T17:55:42.862Z,16.37
2019-03-23T18:01:23.044Z,13.53
2019-03-23T18:06:28.051Z,12.20
2019-03-23T18:12:08.107Z,13.43
2019-03-23T18:17:12.294Z,14.90
2019-03-23T18:22:52.198Z,20.00
2019-03-23T18:27:56.253Z,16.10
2019-03-23T18:33:36.204Z,17.33
2019-03-23T18:38:40.290Z,18.90
2019-03-23T18:44:20.465Z,16.43
2019-03-23T18:49:24.683Z,17.57
2019-03-23T18:55:05.119Z,15.60
2019-03-23T19:00:10.714Z,23.97
2019-03-23T19:05:14.784Z,18.23
2019-03-23T19:10:19.652Z,16.03
2019-03-23T19:15:24.104Z,18.27
2019-03-23T19:21:04.407Z,18.67
2019-03-23T19:26:08.528Z,13.93
2019-03-23T19:31:48.452Z,16.63
2019-03-23T19:36:53.005Z,17.97
2019-03-23T19:41:58.363Z,21.30
2019-03-23T19:47:38.395Z,18.60
2019-03-23T19:52:43.377Z,12.10
2019-03-23T19:57:47.800Z,19.20
2019-03-23T20:02:54.662Z,20.13
2019-03-23T20:08:35.097Z,21.30
2019-03-23T20:13:39.546Z,17.50
2019-03-23T20:19:20.016Z,20.00
2019-03-23T20:24:27.217Z,20.33
2019-03-23T20:30:07.286Z,19.17
2019-03-23T20:35:12.140Z,18.13
2019-03-23T20:40:51.897Z,17.03
2019-03-23T20:46:00.013Z,17.87
2019-03-23T20:51:39.790Z,24.83
2019-03-23T20:56:45.779Z,18.03
2019-03-23T21:02:26.603Z,16.33
2019-03-23T21:07:31.078Z,14.00
2019-03-23T21:13:12.701Z,29.83
2019-03-23T21:18:27.948Z,20.17
2019-03-23T21:24:08.678Z,17.97
2019-03-23T21:29:13.126Z,14.97
2019-03-23T21:34:52.915Z,21.77
2019-03-23T21:39:56.868Z,27.10
2019-03-23T21:45:36.385Z,18.97
2019-03-23T21:50:47.451Z,19.80
2019-03-23T21:56:23.743Z,33.67
2019-03-23T22:01:30.779Z,20.37
2019-03-23T22:06:35.252Z,22.60
2019-03-23T22:11:41.194Z,16.77
2019-03-23T22:17:21.331Z,18.97
2019-03-23T22:22:26.124Z,24.87
2019-03-23T22:34:16.457Z,18.43
2019-03-23T22:39:20.429Z,18.80
2019-03-23T22:45:03.385Z,24.40
2019-03-23T22:50:10.538Z,20.37
2019-03-23T22:55:50.663Z,15.67
2019-03-23T23:00:56.731Z,16.03
2019-03-23T23:06:04.582Z,22.00
2019-03-23T23:11:09.104Z,22.53
2019-03-23T23:16:49.572Z,24.80
2019-03-23T23:21:54.127Z,21.13
2019-03-23T23:27:34.277Z,20.20
2019-03-23T23:32:38.317Z,21.30
2019-03-23T23:38:19.104Z,12.90
2019-03-23T23:43:25.399Z,19.10
2019-03-23T23:49:05.971Z,17.57
2019-03-23T23:54:09.994Z,21.93
2019-03-23T23:59:50.480Z,20.97
